Sun Valley, CA

08:08 AM PDT die 03o August, anno 2015 (GMT -0700)
Burbank-Glendale-Pasadena | | Change Station
CLOSE
Current Station
Airport
Location: Burbank,
Elevation: 774 ft
Nearby Weather Stations

Elev 774 ft 34.20 °N, 118.36 °W | Updated 15 minutes ago

Serena
Serena
69 °F
Feels Like 69 °F
N
0
Ventus Variabilis Ventus from Aquilo

Hodie
High -- | Low -- °F
--% Chance of Precip.
Yesterday
High -- | Low -- °F
Precip. -- in
6:05 AM 7:52 PM
Waning Gibbous, 86% visible
Pressio 29.87 in
Visibilitas 10.0 milia passuum
Clouds Serena
Frigus in quo Ros apparet 61 °F
Umor 75%
Rainfall 0.00 in
Snow Depth Not available.
UV 2 out of 12
Pollen 4.20 out of 12
Air Quality Not available.
Flu Activity Not available.
METAR KBUR 031453Z AUTO 00000KT 10SM CLR 21/16 A2991 RMK AO2 SLP114 T02060161 51008 TSNO

More Conditions Fewer Conditions

Pressio 29.87 in
Visibilitas 10.0 milia passuum
Clouds Serena
Frigus in quo Ros apparet 61 °F
Umor 75%
Rainfall 0.00 in
Snow Depth Not available.
UV 2 out of 12
Pollen 4.20 out of 12
Air Quality Not available.
Flu Activity Not available.
METAR KBUR 031453Z AUTO 00000KT 10SM CLR 21/16 A2991 RMK AO2 SLP114 T02060161 51008 TSNO

More Conditions Fewer Conditions

10-Day Weather Forecast

×

Almanac

Astronomy

Aug. 03, 2015 Rise Set
Actual Time
Civil Twilight
Nautical Twilight
Astronomical Twilight
Moon
Length Of Visible Light
Length of Day
Tomorrow will be .
, % of the Moon is Illuminated

Today's Extremes

State Highs State Lows

Community

WunderPhotos

Upload Photos

1,843,633 photos uploaded!

WunderBlogs® & News

Nearby

Air Quality

  Air Quality AQ Index Pollutant
Not available.

Snow Depth

Station Depth Elevation

Earthquake Activity

City Distance Mag. Time & Date
Minimum magnitude displayed is 2.5.

Coastal Water Temperatures

Locus Calor

Stations

Nearby Weather Stations

Station Location Temp Frigus Venti Frigus in quo Ros apparet Umor Ventus Precip. Elev Renovata Type